sensor_id;sensor_type;location;lat;lon;timestamp;temperature;humidity
36352;DHT22;22382;44.768;17.206;2023-04-01T00:00:59;15.70;73.60
36352;DHT22;22382;44.768;17.206;2023-04-01T00:03:27;14.60;88.90
36352;DHT22;22382;44.768;17.206;2023-04-01T00:05:56;13.60;99.90
36352;DHT22;22382;44.768;17.206;2023-04-01T00:08:25;12.70;99.90
36352;DHT22;22382;44.768;17.206;2023-04-01T00:10:53;12.20;99.90
36352;DHT22;22382;44.768;17.206;2023-04-01T00:13:21;11.90;99.90
36352;DHT22;22382;44.768;17.206;2023-04-01T00:15:48;11.80;99.90
36352;DHT22;22382;44.768;17.206;2023-04-01T00:18:15;11.70;99.90
36352;DHT22;22382;44.768;17.206;2023-04-01T00:20:48;11.70;99.90
36352;DHT22;22382;44.768;17.206;2023-04-01T00:23:16;11.60;99.90
36352;DHT22;22382;44.768;17.206;2023-04-01T00:25:44;11.60;99.90
36352;DHT22;22382;44.768;17.206;2023-04-01T00:28:18;11.60;99.90
36352;DHT22;22382;44.768;17.206;2023-04-01T00:30:45;11.60;99.90
36352;DHT22;22382;44.768;17.206;2023-04-01T00:33:13;11.60;99.90
36352;DHT22;22382;44.768;17.206;2023-04-01T00:35:40;11.60;99.90
36352;DHT22;22382;44.768;17.206;2023-04-01T00:38:08;11.60;99.90
36352;DHT22;22382;44.768;17.206;2023-04-01T00:40:41;11.50;99.90
36352;DHT22;22382;44.768;17.206;2023-04-01T00:43:17;11.60;99.90
36352;DHT22;22382;44.768;17.206;2023-04-01T00:45:48;11.60;99.90
36352;DHT22;22382;44.768;17.206;2023-04-01T00:48:28;11.60;99.90
36352;DHT22;22382;44.768;17.206;2023-04-01T00:51:19;11.60;99.90
36352;DHT22;22382;44.768;17.206;2023-04-01T00:53:49;11.60;99.90
36352;DHT22;22382;44.768;17.206;2023-04-01T00:56:24;11.60;99.90
36352;DHT22;22382;44.768;17.206;2023-04-01T00:59:00;11.60;99.90
36352;DHT22;22382;44.768;17.206;2023-04-01T01:01:30;11.50;99.90
36352;DHT22;22382;44.768;17.206;2023-04-01T01:03:57;11.60;99.90
36352;DHT22;22382;44.768;17.206;2023-04-01T01:06:53;11.50;99.90
36352;DHT22;22382;44.768;17.206;2023-04-01T01:18:04;11.40;99.90
36352;DHT22;22382;44.768;17.206;2023-04-01T01:20:48;11.30;99.90
36352;DHT22;22382;44.768;17.206;2023-04-01T01:23:32;11.40;99.90
36352;DHT22;22382;44.768;17.206;2023-04-01T01:37:33;11.30;99.90
36352;DHT22;22382;44.768;17.206;2023-04-01T01:40:03;11.40;99.90
36352;DHT22;22382;44.768;17.206;2023-04-01T01:42:34;11.40;99.90
36352;DHT22;22382;44.768;17.206;2023-04-01T01:45:04;11.40;99.90
36352;DHT22;22382;44.768;17.206;2023-04-01T01:47:33;11.40;99.90
36352;DHT22;22382;44.768;17.206;2023-04-01T01:50:02;11.30;99.90
36352;DHT22;22382;44.768;17.206;2023-04-01T01:52:30;11.30;99.90
36352;DHT22;22382;44.768;17.206;2023-04-01T01:54:58;11.30;99.90
36352;DHT22;22382;44.768;17.206;2023-04-01T01:57:36;11.20;99.90
36352;DHT22;22382;44.768;17.206;2023-04-01T02:00:08;11.20;99.90
36352;DHT22;22382;44.768;17.206;2023-04-01T02:02:46;11.20;99.90
36352;DHT22;22382;44.768;17.206;2023-04-01T02:05:21;11.20;99.90
36352;DHT22;22382;44.768;17.206;2023-04-01T02:08:10;11.20;99.90
36352;DHT22;22382;44.768;17.206;2023-04-01T02:10:42;11.10;99.90
36352;DHT22;22382;44.768;17.206;2023-04-01T02:13:17;11.20;99.90
36352;DHT22;22382;44.768;17.206;2023-04-01T02:15:47;11.20;99.90
36352;DHT22;22382;44.768;17.206;2023-04-01T02:18:17;11.20;99.90
36352;DHT22;22382;44.768;17.206;2023-04-01T02:20:46;11.20;99.90
36352;DHT22;22382;44.768;17.206;2023-04-01T02:23:13;11.20;99.90
36352;DHT22;22382;44.768;17.206;2023-04-01T02:25:41;11.20;99.90
36352;DHT22;22382;44.768;17.206;2023-04-01T02:28:11;11.20;99.90
36352;DHT22;22382;44.768;17.206;2023-04-01T02:30:41;11.20;99.90
36352;DHT22;22382;44.768;17.206;2023-04-01T02:33:09;11.20;99.90
36352;DHT22;22382;44.768;17.206;2023-04-01T02:35:37;11.20;99.90
36352;DHT22;22382;44.768;17.206;2023-04-01T02:38:05;11.20;99.90
36352;DHT22;22382;44.768;17.206;2023-04-01T02:40:50;11.20;99.90
36352;DHT22;22382;44.768;17.206;2023-04-01T02:43:18;11.20;99.90
36352;DHT22;22382;44.768;17.206;2023-04-01T02:45:46;11.10;99.90
36352;DHT22;22382;44.768;17.206;2023-04-01T02:48:13;11.10;99.90
36352;DHT22;22382;44.768;17.206;2023-04-01T02:50:41;11.00;99.90
36352;DHT22;22382;44.768;17.206;2023-04-01T02:53:08;11.00;99.90
36352;DHT22;22382;44.768;17.206;2023-04-01T02:55:35;10.90;99.90
36352;DHT22;22382;44.768;17.206;2023-04-01T02:58:02;10.90;99.90
36352;DHT22;22382;44.768;17.206;2023-04-01T03:00:29;10.80;99.90
36352;DHT22;22382;44.768;17.206;2023-04-01T03:02:56;10.80;99.90
36352;DHT22;22382;44.768;17.206;2023-04-01T03:05:24;10.70;99.90
36352;DHT22;22382;44.768;17.206;2023-04-01T03:07:51;10.60;99.90
36352;DHT22;22382;44.768;17.206;2023-04-01T03:10:18;10.50;99.90
36352;DHT22;22382;44.768;17.206;2023-04-01T03:12:46;10.50;99.90
36352;DHT22;22382;44.768;17.206;2023-04-01T03:15:14;10.40;99.90
36352;DHT22;22382;44.768;17.206;2023-04-01T03:17:42;10.30;99.90
36352;DHT22;22382;44.768;17.206;2023-04-01T03:20:10;10.30;99.90
36352;DHT22;22382;44.768;17.206;2023-04-01T03:22:38;10.30;99.90
36352;DHT22;22382;44.768;17.206;2023-04-01T03:25:09;10.20;99.90
36352;DHT22;22382;44.768;17.206;2023-04-01T03:27:36;10.00;99.90
36352;DHT22;22382;44.768;17.206;2023-04-01T03:30:05;9.80;99.90
36352;DHT22;22382;44.768;17.206;2023-04-01T03:32:33;9.80;99.90
36352;DHT22;22382;44.768;17.206;2023-04-01T03:35:00;9.70;99.90
36352;DHT22;22382;44.768;17.206;2023-04-01T03:37:27;9.70;99.90
36352;DHT22;22382;44.768;17.206;2023-04-01T03:39:54;9.70;99.90
36352;DHT22;22382;44.768;17.206;2023-04-01T03:42:22;9.70;99.90
36352;DHT22;22382;44.768;17.206;2023-04-01T03:44:49;9.70;99.90
36352;DHT22;22382;44.768;17.206;2023-04-01T03:47:16;9.70;99.90
36352;DHT22;22382;44.768;17.206;2023-04-01T03:49:43;9.70;99.90
36352;DHT22;22382;44.768;17.206;2023-04-01T03:52:11;9.60;99.90
36352;DHT22;22382;44.768;17.206;2023-04-01T03:54:38;9.60;99.90
36352;DHT22;22382;44.768;17.206;2023-04-01T03:57:05;9.60;99.90
36352;DHT22;22382;44.768;17.206;2023-04-01T03:59:33;9.50;99.90
36352;DHT22;22382;44.768;17.206;2023-04-01T04:02:00;9.30;99.90
36352;DHT22;22382;44.768;17.206;2023-04-01T04:04:28;9.10;99.90
36352;DHT22;22382;44.768;17.206;2023-04-01T04:06:55;9.10;99.90
36352;DHT22;22382;44.768;17.206;2023-04-01T04:09:22;8.90;99.90
36352;DHT22;22382;44.768;17.206;2023-04-01T04:11:50;8.90;99.90
36352;DHT22;22382;44.768;17.206;2023-04-01T04:14:17;8.80;99.90
36352;DHT22;22382;44.768;17.206;2023-04-01T04:16:44;8.80;99.90
36352;DHT22;22382;44.768;17.206;2023-04-01T04:19:12;8.70;99.90
36352;DHT22;22382;44.768;17.206;2023-04-01T04:21:40;8.70;99.90
36352;DHT22;22382;44.768;17.206;2023-04-01T04:24:08;8.60;99.90
36352;DHT22;22382;44.768;17.206;2023-04-01T04:26:35;8.70;99.90
36352;DHT22;22382;44.768;17.206;2023-04-01T04:29:03;8.70;99.90
36352;DHT22;22382;44.768;17.206;2023-04-01T04:31:30;8.70;99.90
36352;DHT22;22382;44.768;17.206;2023-04-01T04:33:59;8.70;99.90
36352;DHT22;22382;44.768;17.206;2023-04-01T04:36:27;8.60;99.90
36352;DHT22;22382;44.768;17.206;2023-04-01T04:38:54;8.60;99.90
36352;DHT22;22382;44.768;17.206;2023-04-01T04:41:22;8.50;99.90
36352;DHT22;22382;44.768;17.206;2023-04-01T04:43:51;8.60;99.90
36352;DHT22;22382;44.768;17.206;2023-04-01T04:46:19;8.50;99.90
36352;DHT22;22382;44.768;17.206;2023-04-01T04:48:47;8.50;99.90
36352;DHT22;22382;44.768;17.206;2023-04-01T04:51:19;8.50;99.90
36352;DHT22;22382;44.768;17.206;2023-04-01T04:53:47;8.50;99.90
36352;DHT22;22382;44.768;17.206;2023-04-01T04:56:21;8.50;99.90
36352;DHT22;22382;44.768;17.206;2023-04-01T04:58:49;8.50;99.90
36352;DHT22;22382;44.768;17.206;2023-04-01T05:01:17;8.60;99.90
36352;DHT22;22382;44.768;17.206;2023-04-01T05:03:45;8.50;99.90
36352;DHT22;22382;44.768;17.206;2023-04-01T05:06:14;8.50;99.90
36352;DHT22;22382;44.768;17.206;2023-04-01T05:08:44;8.50;99.90
36352;DHT22;22382;44.768;17.206;2023-04-01T05:11:19;8.60;99.90
36352;DHT22;22382;44.768;17.206;2023-04-01T05:13:47;8.60;99.90
36352;DHT22;22382;44.768;17.206;2023-04-01T05:16:16;8.60;99.90
36352;DHT22;22382;44.768;17.206;2023-04-01T05:18:44;8.70;99.90
36352;DHT22;22382;44.768;17.206;2023-04-01T05:21:13;8.60;99.90
36352;DHT22;22382;44.768;17.206;2023-04-01T05:23:42;8.60;99.90
36352;DHT22;22382;44.768;17.206;2023-04-01T05:26:11;8.60;99.90
36352;DHT22;22382;44.768;17.206;2023-04-01T05:28:39;8.60;99.90
36352;DHT22;22382;44.768;17.206;2023-04-01T05:31:07;8.70;99.90
36352;DHT22;22382;44.768;17.206;2023-04-01T05:33:35;8.70;99.90
36352;DHT22;22382;44.768;17.206;2023-04-01T05:36:13;8.70;99.90
36352;DHT22;22382;44.768;17.206;2023-04-01T05:38:41;8.70;99.90
36352;DHT22;22382;44.768;17.206;2023-04-01T05:41:09;8.70;99.90
36352;DHT22;22382;44.768;17.206;2023-04-01T05:43:37;8.60;99.90
36352;DHT22;22382;44.768;17.206;2023-04-01T05:46:04;8.70;99.90
36352;DHT22;22382;44.768;17.206;2023-04-01T05:48:33;8.60;99.90
36352;DHT22;22382;44.768;17.206;2023-04-01T05:51:02;8.70;99.90
36352;DHT22;22382;44.768;17.206;2023-04-01T05:53:30;8.60;99.90
36352;DHT22;22382;44.768;17.206;2023-04-01T05:56:02;8.70;99.90
36352;DHT22;22382;44.768;17.206;2023-04-01T05:58:30;8.70;99.90
36352;DHT22;22382;44.768;17.206;2023-04-01T06:01:05;8.80;99.90
36352;DHT22;22382;44.768;17.206;2023-04-01T06:03:39;8.70;99.90
36352;DHT22;22382;44.768;17.206;2023-04-01T06:06:26;8.70;99.90
36352;DHT22;22382;44.768;17.206;2023-04-01T06:08:56;8.70;99.90
36352;DHT22;22382;44.768;17.206;2023-04-01T06:20:09;8.90;99.90
36352;DHT22;22382;44.768;17.206;2023-04-01T06:44:43;8.90;99.90
36352;DHT22;22382;44.768;17.206;2023-04-01T06:47:44;8.90;99.90
36352;DHT22;22382;44.768;17.206;2023-04-01T06:52:58;8.90;99.90
36352;DHT22;22382;44.768;17.206;2023-04-01T06:55:42;8.90;99.90
36352;DHT22;22382;44.768;17.206;2023-04-01T06:58:24;9.00;99.90
36352;DHT22;22382;44.768;17.206;2023-04-01T07:00:58;9.00;99.90
36352;DHT22;22382;44.768;17.206;2023-04-01T07:03:34;9.00;99.90
36352;DHT22;22382;44.768;17.206;2023-04-01T07:07:08;9.00;99.90
36352;DHT22;22382;44.768;17.206;2023-04-01T07:09:14;9.00;99.90
36352;DHT22;22382;44.768;17.206;2023-04-01T07:11:42;9.00;99.90
36352;DHT22;22382;44.768;17.206;2023-04-01T07:14:24;8.90;99.90
36352;DHT22;22382;44.768;17.206;2023-04-01T07:17:22;9.00;99.90
36352;DHT22;22382;44.768;17.206;2023-04-01T07:22:30;9.20;99.90
36352;DHT22;22382;44.768;17.206;2023-04-01T07:25:11;9.20;99.90
36352;DHT22;22382;44.768;17.206;2023-04-01T07:27:41;9.30;99.90
36352;DHT22;22382;44.768;17.206;2023-04-01T07:32:56;9.50;99.90
36352;DHT22;22382;44.768;17.206;2023-04-01T07:38:34;9.40;99.90
36352;DHT22;22382;44.768;17.206;2023-04-01T07:47:16;9.50;99.90
36352;DHT22;22382;44.768;17.206;2023-04-01T07:55:16;9.20;99.90
36352;DHT22;22382;44.768;17.206;2023-04-01T07:57:57;9.30;99.90
36352;DHT22;22382;44.768;17.206;2023-04-01T08:10:09;9.90;99.90
36352;DHT22;22382;44.768;17.206;2023-04-01T08:15:31;10.00;99.90
36352;DHT22;22382;44.768;17.206;2023-04-01T08:21:03;10.00;99.90
36352;DHT22;22382;44.768;17.206;2023-04-01T08:23:41;9.90;99.90
36352;DHT22;22382;44.768;17.206;2023-04-01T08:31:39;10.20;99.90
36352;DHT22;22382;44.768;17.206;2023-04-01T08:34:20;10.60;99.90
36352;DHT22;22382;44.768;17.206;2023-04-01T08:39:54;11.50;99.90
36352;DHT22;22382;44.768;17.206;2023-04-01T08:45:48;11.90;99.90
36352;DHT22;22382;44.768;17.206;2023-04-01T08:54:25;12.00;99.90
36352;DHT22;22382;44.768;17.206;2023-04-01T09:22:49;12.90;99.90
36352;DHT22;22382;44.768;17.206;2023-04-01T09:33:38;13.10;99.90
36352;DHT22;22382;44.768;17.206;2023-04-01T10:33:18;16.10;83.00
36352;DHT22;22382;44.768;17.206;2023-04-01T11:16:18;14.50;85.20
36352;DHT22;22382;44.768;17.206;2023-04-01T11:22:10;14.50;85.00
36352;DHT22;22382;44.768;17.206;2023-04-01T11:33:36;14.70;84.50
36352;DHT22;22382;44.768;17.206;2023-04-01T11:38:37;14.60;80.60
36352;DHT22;22382;44.768;17.206;2023-04-01T12:09:17;15.60;75.60
36352;DHT22;22382;44.768;17.206;2023-04-01T12:14:42;15.40;71.50
36352;DHT22;22382;44.768;17.206;2023-04-01T12:25:36;15.80;73.20
36352;DHT22;22382;44.768;17.206;2023-04-01T12:34:39;16.10;70.90
36352;DHT22;22382;44.768;17.206;2023-04-01T12:37:07;16.20;70.90
36352;DHT22;22382;44.768;17.206;2023-04-01T12:45:30;16.70;68.90
36352;DHT22;22382;44.768;17.206;2023-04-01T12:48:24;16.70;66.90
36352;DHT22;22382;44.768;17.206;2023-04-01T13:12:35;16.60;67.00
36352;DHT22;22382;44.768;17.206;2023-04-01T13:29:18;16.70;67.00
36352;DHT22;22382;44.768;17.206;2023-04-01T13:42:57;16.80;67.60
36352;DHT22;22382;44.768;17.206;2023-04-01T13:45:42;16.80;66.90
36352;DHT22;22382;44.768;17.206;2023-04-01T13:51:33;16.90;67.50
36352;DHT22;22382;44.768;17.206;2023-04-01T14:05:24;17.10;66.10
36352;DHT22;22382;44.768;17.206;2023-04-01T14:14:27;17.10;66.00
36352;DHT22;22382;44.768;17.206;2023-04-01T14:25:54;16.90;64.40
36352;DHT22;22382;44.768;17.206;2023-04-01T14:37:04;17.10;64.30
36352;DHT22;22382;44.768;17.206;2023-04-01T14:51:51;17.20;63.90
36352;DHT22;22382;44.768;17.206;2023-04-01T14:54:13;17.10;63.30
36352;DHT22;22382;44.768;17.206;2023-04-01T14:56:51;17.10;62.80
36352;DHT22;22382;44.768;17.206;2023-04-01T14:59:29;17.20;61.70
36352;DHT22;22382;44.768;17.206;2023-04-01T15:02:01;17.20;62.00
36352;DHT22;22382;44.768;17.206;2023-04-01T15:21:55;18.10;59.10
36352;DHT22;22382;44.768;17.206;2023-04-01T15:25:05;18.20;60.60
36352;DHT22;22382;44.768;17.206;2023-04-01T15:33:18;18.50;58.40
36352;DHT22;22382;44.768;17.206;2023-04-01T15:36:16;18.40;58.60
36352;DHT22;22382;44.768;17.206;2023-04-01T15:41:29;18.00;58.90
36352;DHT22;22382;44.768;17.206;2023-04-01T15:44:02;18.00;59.30
36352;DHT22;22382;44.768;17.206;2023-04-01T15:46:46;18.00;59.50
36352;DHT22;22382;44.768;17.206;2023-04-01T15:49:28;17.90;59.30
36352;DHT22;22382;44.768;17.206;2023-04-01T16:00:25;18.00;57.50
36352;DHT22;22382;44.768;17.206;2023-04-01T16:08:45;17.50;58.00
36352;DHT22;22382;44.768;17.206;2023-04-01T16:19:59;17.10;61.30
36352;DHT22;22382;44.768;17.206;2023-04-01T16:22:54;17.10;61.60
36352;DHT22;22382;44.768;17.206;2023-04-01T16:34:17;16.30;63.10
36352;DHT22;22382;44.768;17.206;2023-04-01T16:37:00;15.50;66.10
36352;DHT22;22382;44.768;17.206;2023-04-01T16:42:16;14.50;70.20
36352;DHT22;22382;44.768;17.206;2023-04-01T16:47:40;13.80;72.30
36352;DHT22;22382;44.768;17.206;2023-04-01T16:50:28;13.60;74.10
36352;DHT22;22382;44.768;17.206;2023-04-01T16:55:52;13.30;75.60
36352;DHT22;22382;44.768;17.206;2023-04-01T16:58:39;13.30;76.50
36352;DHT22;22382;44.768;17.206;2023-04-01T17:01:27;13.30;76.40
36352;DHT22;22382;44.768;17.206;2023-04-01T17:13:06;13.10;78.10
36352;DHT22;22382;44.768;17.206;2023-04-01T17:18:37;13.40;79.30
36352;DHT22;22382;44.768;17.206;2023-04-01T17:35:40;13.50;76.90
36352;DHT22;22382;44.768;17.206;2023-04-01T17:41:31;13.50;78.40
36352;DHT22;22382;44.768;17.206;2023-04-01T17:55:39;13.30;84.80
36352;DHT22;22382;44.768;17.206;2023-04-01T18:03:50;12.70;94.70
36352;DHT22;22382;44.768;17.206;2023-04-01T18:06:57;12.60;96.60
36352;DHT22;22382;44.768;17.206;2023-04-01T18:09:43;12.50;95.10
36352;DHT22;22382;44.768;17.206;2023-04-01T18:15:49;12.30;95.80
36352;DHT22;22382;44.768;17.206;2023-04-01T18:18:50;12.30;94.90
36352;DHT22;22382;44.768;17.206;2023-04-01T18:27:24;12.10;99.90
36352;DHT22;22382;44.768;17.206;2023-04-01T18:29:49;12.10;99.90
36352;DHT22;22382;44.768;17.206;2023-04-01T18:38:13;11.90;99.90
36352;DHT22;22382;44.768;17.206;2023-04-01T18:47:25;11.70;99.90
36352;DHT22;22382;44.768;17.206;2023-04-01T18:53:13;11.70;99.90
36352;DHT22;22382;44.768;17.206;2023-04-01T18:55:47;11.60;99.90
36352;DHT22;22382;44.768;17.206;2023-04-01T18:58:29;11.60;98.90
36352;DHT22;22382;44.768;17.206;2023-04-01T19:01:07;11.60;99.10
36352;DHT22;22382;44.768;17.206;2023-04-01T19:06:40;11.40;99.90
36352;DHT22;22382;44.768;17.206;2023-04-01T19:09:27;11.40;99.90
36352;DHT22;22382;44.768;17.206;2023-04-01T19:20:26;11.00;99.90
36352;DHT22;22382;44.768;17.206;2023-04-01T19:25:53;11.00;99.90
36352;DHT22;22382;44.768;17.206;2023-04-01T19:40:19;10.60;99.90
36352;DHT22;22382;44.768;17.206;2023-04-01T19:42:32;10.50;99.90
36352;DHT22;22382;44.768;17.206;2023-04-01T19:45:19;10.40;99.90
36352;DHT22;22382;44.768;17.206;2023-04-01T19:50:59;10.20;99.90
36352;DHT22;22382;44.768;17.206;2023-04-01T19:56:22;10.10;99.90
36352;DHT22;22382;44.768;17.206;2023-04-01T19:59:00;10.00;99.90
36352;DHT22;22382;44.768;17.206;2023-04-01T20:04:44;9.90;99.90
36352;DHT22;22382;44.768;17.206;2023-04-01T20:07:27;9.80;99.90
36352;DHT22;22382;44.768;17.206;2023-04-01T20:10:37;9.70;99.90
36352;DHT22;22382;44.768;17.206;2023-04-01T20:16:03;9.60;99.90
36352;DHT22;22382;44.768;17.206;2023-04-01T20:18:41;9.50;99.90
36352;DHT22;22382;44.768;17.206;2023-04-01T20:21:24;9.50;99.90
36352;DHT22;22382;44.768;17.206;2023-04-01T20:24:00;9.50;99.90
36352;DHT22;22382;44.768;17.206;2023-04-01T20:26:38;9.50;99.90
36352;DHT22;22382;44.768;17.206;2023-04-01T20:32:06;9.50;99.90
36352;DHT22;22382;44.768;17.206;2023-04-01T20:37:49;9.50;99.90
36352;DHT22;22382;44.768;17.206;2023-04-01T20:40:43;9.40;99.90
36352;DHT22;22382;44.768;17.206;2023-04-01T20:43:33;9.40;99.90
36352;DHT22;22382;44.768;17.206;2023-04-01T20:46:30;9.30;99.90
36352;DHT22;22382;44.768;17.206;2023-04-01T20:57:38;9.00;99.90
36352;DHT22;22382;44.768;17.206;2023-04-01T21:03:23;8.90;99.90
36352;DHT22;22382;44.768;17.206;2023-04-01T21:11:18;8.80;99.90
36352;DHT22;22382;44.768;17.206;2023-04-01T21:33:34;8.60;99.90
36352;DHT22;22382;44.768;17.206;2023-04-01T21:36:17;8.60;99.90
36352;DHT22;22382;44.768;17.206;2023-04-01T21:44:51;8.60;99.90
36352;DHT22;22382;44.768;17.206;2023-04-01T22:04:47;8.40;99.90
36352;DHT22;22382;44.768;17.206;2023-04-01T22:07:19;8.40;99.90
36352;DHT22;22382;44.768;17.206;2023-04-01T22:10:21;8.30;99.90
36352;DHT22;22382;44.768;17.206;2023-04-01T22:12:59;8.20;99.90
36352;DHT22;22382;44.768;17.206;2023-04-01T22:22:01;8.20;99.90
36352;DHT22;22382;44.768;17.206;2023-04-01T22:28:04;8.00;99.90
36352;DHT22;22382;44.768;17.206;2023-04-01T22:30:50;7.90;99.90
36352;DHT22;22382;44.768;17.206;2023-04-01T22:33:24;7.90;99.90
36352;DHT22;22382;44.768;17.206;2023-04-01T22:42:18;7.80;99.90
36352;DHT22;22382;44.768;17.206;2023-04-01T22:45:10;7.80;99.90
36352;DHT22;22382;44.768;17.206;2023-04-01T22:55:53;7.90;99.90
36352;DHT22;22382;44.768;17.206;2023-04-01T22:58:54;7.80;99.90
36352;DHT22;22382;44.768;17.206;2023-04-01T23:01:32;7.80;99.90
36352;DHT22;22382;44.768;17.206;2023-04-01T23:04:12;7.80;99.90
36352;DHT22;22382;44.768;17.206;2023-04-01T23:06:52;7.80;99.90
36352;DHT22;22382;44.768;17.206;2023-04-01T23:09:31;7.70;99.90
36352;DHT22;22382;44.768;17.206;2023-04-01T23:12:09;7.70;99.90
36352;DHT22;22382;44.768;17.206;2023-04-01T23:28:56;7.40;99.90
36352;DHT22;22382;44.768;17.206;2023-04-01T23:31:38;7.30;99.90
36352;DHT22;22382;44.768;17.206;2023-04-01T23:34:20;7.40;99.90
36352;DHT22;22382;44.768;17.206;2023-04-01T23:37:10;7.40;99.90
36352;DHT22;22382;44.768;17.206;2023-04-01T23:39:45;7.30;99.90
36352;DHT22;22382;44.768;17.206;2023-04-01T23:45:02;7.20;99.90
36352;DHT22;22382;44.768;17.206;2023-04-01T23:47:38;7.20;99.90
36352;DHT22;22382;44.768;17.206;2023-04-01T23:50:20;7.20;99.90
36352;DHT22;22382;44.768;17.206;2023-04-01T23:53:18;7.20;99.90
36352;DHT22;22382;44.768;17.206;2023-04-01T23:55:52;7.10;99.90
36352;DHT22;22382;44.768;17.206;2023-04-01T23:58:49;7.10;99.90
